Terminal Aerodrome Forecast
Issued by NWS Cleveland, OH

Home | Current Version | Previous Version | Graphics & Text | Print | Product List | Glossary On
Versions: 1 2 3 4 5 6 7 8 9 10 11 12 13 14 15 16 17 18 19 20 21
948
FTUS41 KCLE 111741
TAFMFD
TAF
KMFD 111741Z 1118/1218 18008KT P6SM SCT025 OVC060
      TEMPO 1120/1122 4SM -SHSN BKN025
     FM120400 21008KT P6SM VCSH BKN035
     FM120700 28012KT 4SM -SN OVC025
     FM120900 30018G28KT 2SM -SN OVC015
     FM121300 31015G25KT 6SM -SHSN OVC025=

USA.gov is the U.S. government's official web portal to all federal, state and local government web resources and services.